sensor_id;sensor_type;location;lat;lon;timestamp;P1;durP1;ratioP1;P2;durP2;ratioP2
21272;SDS011;36726;52.328;10.552;2023-04-03T00:02:03;6.70;;;1.10;;
21272;SDS011;36726;52.328;10.552;2023-04-03T00:04:30;2.78;;;1.23;;
21272;SDS011;36726;52.328;10.552;2023-04-03T00:06:56;6.72;;;1.20;;
21272;SDS011;36726;52.328;10.552;2023-04-03T00:09:27;4.20;;;1.00;;
21272;SDS011;36726;52.328;10.552;2023-04-03T00:11:54;3.03;;;1.08;;
21272;SDS011;36726;52.328;10.552;2023-04-03T00:14:20;4.43;;;0.93;;
21272;SDS011;36726;52.328;10.552;2023-04-03T00:16:47;2.65;;;1.00;;
21272;SDS011;36726;52.328;10.552;2023-04-03T00:19:14;5.43;;;1.20;;
21272;SDS011;36726;52.328;10.552;2023-04-03T00:21:43;3.95;;;1.00;;
21272;SDS011;36726;52.328;10.552;2023-04-03T00:24:09;3.17;;;1.00;;
21272;SDS011;36726;52.328;10.552;2023-04-03T00:26:36;4.60;;;1.17;;
21272;SDS011;36726;52.328;10.552;2023-04-03T00:29:03;1.77;;;0.88;;
21272;SDS011;36726;52.328;10.552;2023-04-03T00:31:30;2.17;;;0.93;;
21272;SDS011;36726;52.328;10.552;2023-04-03T00:33:57;2.30;;;1.10;;
21272;SDS011;36726;52.328;10.552;2023-04-03T00:36:24;2.80;;;1.15;;
21272;SDS011;36726;52.328;10.552;2023-04-03T00:38:51;2.95;;;1.25;;
21272;SDS011;36726;52.328;10.552;2023-04-03T00:41:17;3.35;;;0.80;;
21272;SDS011;36726;52.328;10.552;2023-04-03T00:43:44;2.55;;;1.00;;
21272;SDS011;36726;52.328;10.552;2023-04-03T00:46:11;6.25;;;0.93;;
21272;SDS011;36726;52.328;10.552;2023-04-03T00:48:39;2.15;;;0.88;;
21272;SDS011;36726;52.328;10.552;2023-04-03T00:51:10;2.10;;;0.82;;
21272;SDS011;36726;52.328;10.552;2023-04-03T00:53:54;3.33;;;1.30;;
21272;SDS011;36726;52.328;10.552;2023-04-03T00:56:25;4.93;;;1.17;;
21272;SDS011;36726;52.328;10.552;2023-04-03T01:01:30;3.78;;;0.90;;
21272;SDS011;36726;52.328;10.552;2023-04-03T01:03:58;4.40;;;1.25;;
21272;SDS011;36726;52.328;10.552;2023-04-03T01:06:27;3.03;;;0.90;;
21272;SDS011;36726;52.328;10.552;2023-04-03T01:09:05;3.53;;;0.77;;
21272;SDS011;36726;52.328;10.552;2023-04-03T01:11:31;5.15;;;0.85;;
21272;SDS011;36726;52.328;10.552;2023-04-03T01:14:00;4.18;;;1.00;;
21272;SDS011;36726;52.328;10.552;2023-04-03T01:16:29;2.53;;;0.60;;
21272;SDS011;36726;52.328;10.552;2023-04-03T01:18:58;4.45;;;0.85;;
21272;SDS011;36726;52.328;10.552;2023-04-03T01:26:45;3.85;;;1.00;;
21272;SDS011;36726;52.328;10.552;2023-04-03T01:29:12;3.55;;;0.73;;
21272;SDS011;36726;52.328;10.552;2023-04-03T01:34:20;2.70;;;0.98;;
21272;SDS011;36726;52.328;10.552;2023-04-03T01:36:46;3.40;;;0.82;;
21272;SDS011;36726;52.328;10.552;2023-04-03T01:39:15;3.58;;;1.10;;
21272;SDS011;36726;52.328;10.552;2023-04-03T01:41:42;2.85;;;1.00;;
21272;SDS011;36726;52.328;10.552;2023-04-03T01:44:27;2.50;;;1.00;;
21272;SDS011;36726;52.328;10.552;2023-04-03T01:46:56;7.38;;;1.42;;
21272;SDS011;36726;52.328;10.552;2023-04-03T01:49:24;1.00;;;0.85;;
21272;SDS011;36726;52.328;10.552;2023-04-03T01:51:51;3.58;;;1.23;;
21272;SDS011;36726;52.328;10.552;2023-04-03T01:54:18;2.40;;;0.90;;
21272;SDS011;36726;52.328;10.552;2023-04-03T01:56:45;2.72;;;1.20;;
21272;SDS011;36726;52.328;10.552;2023-04-03T01:59:14;3.67;;;1.08;;
21272;SDS011;36726;52.328;10.552;2023-04-03T02:01:45;3.28;;;1.10;;
21272;SDS011;36726;52.328;10.552;2023-04-03T02:04:12;2.55;;;0.98;;
21272;SDS011;36726;52.328;10.552;2023-04-03T02:06:39;4.43;;;0.77;;
21272;SDS011;36726;52.328;10.552;2023-04-03T02:09:06;3.83;;;1.05;;
21272;SDS011;36726;52.328;10.552;2023-04-03T02:11:36;2.80;;;0.82;;
21272;SDS011;36726;52.328;10.552;2023-04-03T02:14:03;1.20;;;0.65;;
21272;SDS011;36726;52.328;10.552;2023-04-03T02:16:29;3.20;;;1.02;;
21272;SDS011;36726;52.328;10.552;2023-04-03T02:18:57;2.65;;;0.80;;
21272;SDS011;36726;52.328;10.552;2023-04-03T02:21:24;3.47;;;1.00;;
21272;SDS011;36726;52.328;10.552;2023-04-03T02:23:50;3.15;;;0.70;;
21272;SDS011;36726;52.328;10.552;2023-04-03T02:26:17;2.63;;;0.82;;
21272;SDS011;36726;52.328;10.552;2023-04-03T02:28:44;1.67;;;0.75;;
21272;SDS011;36726;52.328;10.552;2023-04-03T02:31:13;2.55;;;0.90;;
21272;SDS011;36726;52.328;10.552;2023-04-03T02:33:42;3.80;;;1.20;;
21272;SDS011;36726;52.328;10.552;2023-04-03T02:36:11;2.60;;;1.00;;
21272;SDS011;36726;52.328;10.552;2023-04-03T02:38:41;2.97;;;1.10;;
21272;SDS011;36726;52.328;10.552;2023-04-03T02:41:10;1.63;;;0.80;;
21272;SDS011;36726;52.328;10.552;2023-04-03T02:43:38;3.60;;;0.82;;
21272;SDS011;36726;52.328;10.552;2023-04-03T02:46:05;4.53;;;0.88;;
21272;SDS011;36726;52.328;10.552;2023-04-03T02:48:33;2.65;;;0.90;;
21272;SDS011;36726;52.328;10.552;2023-04-03T02:51:00;3.80;;;0.95;;
21272;SDS011;36726;52.328;10.552;2023-04-03T02:53:27;1.92;;;1.10;;
21272;SDS011;36726;52.328;10.552;2023-04-03T02:55:54;4.78;;;0.90;;
21272;SDS011;36726;52.328;10.552;2023-04-03T02:58:20;4.80;;;1.10;;
21272;SDS011;36726;52.328;10.552;2023-04-03T03:00:49;2.65;;;0.95;;
21272;SDS011;36726;52.328;10.552;2023-04-03T03:03:15;2.78;;;0.75;;
21272;SDS011;36726;52.328;10.552;2023-04-03T03:05:42;1.83;;;0.68;;
21272;SDS011;36726;52.328;10.552;2023-04-03T03:08:09;1.83;;;0.80;;
21272;SDS011;36726;52.328;10.552;2023-04-03T03:10:35;6.85;;;1.23;;
21272;SDS011;36726;52.328;10.552;2023-04-03T03:13:03;4.70;;;1.13;;
21272;SDS011;36726;52.328;10.552;2023-04-03T03:15:29;5.53;;;1.20;;
21272;SDS011;36726;52.328;10.552;2023-04-03T03:17:57;6.97;;;1.40;;
21272;SDS011;36726;52.328;10.552;2023-04-03T03:20:24;3.65;;;1.10;;
21272;SDS011;36726;52.328;10.552;2023-04-03T03:22:51;1.30;;;0.70;;
21272;SDS011;36726;52.328;10.552;2023-04-03T03:25:18;2.75;;;0.90;;
21272;SDS011;36726;52.328;10.552;2023-04-03T03:27:44;3.00;;;0.98;;
21272;SDS011;36726;52.328;10.552;2023-04-03T03:30:14;3.75;;;0.85;;
21272;SDS011;36726;52.328;10.552;2023-04-03T03:32:41;3.25;;;0.80;;
21272;SDS011;36726;52.328;10.552;2023-04-03T03:35:08;3.67;;;0.95;;
21272;SDS011;36726;52.328;10.552;2023-04-03T03:37:34;3.03;;;1.60;;
21272;SDS011;36726;52.328;10.552;2023-04-03T03:40:01;4.80;;;1.35;;
21272;SDS011;36726;52.328;10.552;2023-04-03T03:42:31;4.43;;;1.15;;
21272;SDS011;36726;52.328;10.552;2023-04-03T03:44:58;2.30;;;0.90;;
21272;SDS011;36726;52.328;10.552;2023-04-03T03:47:24;3.75;;;1.23;;
21272;SDS011;36726;52.328;10.552;2023-04-03T03:49:52;1.80;;;1.13;;
21272;SDS011;36726;52.328;10.552;2023-04-03T03:52:18;3.53;;;1.08;;
21272;SDS011;36726;52.328;10.552;2023-04-03T03:54:45;5.18;;;1.15;;
21272;SDS011;36726;52.328;10.552;2023-04-03T03:57:12;3.75;;;0.90;;
21272;SDS011;36726;52.328;10.552;2023-04-03T03:59:38;2.10;;;0.70;;
21272;SDS011;36726;52.328;10.552;2023-04-03T04:02:08;5.57;;;1.10;;
21272;SDS011;36726;52.328;10.552;2023-04-03T04:04:36;2.08;;;0.90;;
21272;SDS011;36726;52.328;10.552;2023-04-03T04:07:03;2.08;;;0.82;;
21272;SDS011;36726;52.328;10.552;2023-04-03T04:09:32;4.40;;;1.08;;
21272;SDS011;36726;52.328;10.552;2023-04-03T04:11:59;2.47;;;1.15;;
21272;SDS011;36726;52.328;10.552;2023-04-03T04:14:26;2.17;;;0.90;;
21272;SDS011;36726;52.328;10.552;2023-04-03T04:16:53;2.38;;;1.00;;
21272;SDS011;36726;52.328;10.552;2023-04-03T04:19:23;1.33;;;0.88;;
21272;SDS011;36726;52.328;10.552;2023-04-03T04:21:50;3.25;;;0.73;;
21272;SDS011;36726;52.328;10.552;2023-04-03T04:24:17;2.50;;;1.02;;
21272;SDS011;36726;52.328;10.552;2023-04-03T04:26:45;2.05;;;1.00;;
21272;SDS011;36726;52.328;10.552;2023-04-03T04:29:13;3.10;;;0.90;;
21272;SDS011;36726;52.328;10.552;2023-04-03T04:31:42;3.78;;;1.02;;
21272;SDS011;36726;52.328;10.552;2023-04-03T04:34:08;2.05;;;0.90;;
21272;SDS011;36726;52.328;10.552;2023-04-03T04:36:36;2.63;;;0.95;;
21272;SDS011;36726;52.328;10.552;2023-04-03T04:39:04;2.65;;;0.88;;
21272;SDS011;36726;52.328;10.552;2023-04-03T04:41:31;2.10;;;1.02;;
21272;SDS011;36726;52.328;10.552;2023-04-03T04:43:59;7.30;;;1.00;;
21272;SDS011;36726;52.328;10.552;2023-04-03T04:46:29;1.65;;;0.88;;
21272;SDS011;36726;52.328;10.552;2023-04-03T04:48:58;2.00;;;0.90;;
21272;SDS011;36726;52.328;10.552;2023-04-03T04:51:27;4.20;;;0.85;;
21272;SDS011;36726;52.328;10.552;2023-04-03T04:54:00;1.48;;;0.77;;
21272;SDS011;36726;52.328;10.552;2023-04-03T04:56:28;3.92;;;0.82;;
21272;SDS011;36726;52.328;10.552;2023-04-03T04:58:55;2.20;;;0.80;;
21272;SDS011;36726;52.328;10.552;2023-04-03T05:01:25;2.40;;;0.93;;
21272;SDS011;36726;52.328;10.552;2023-04-03T05:04:04;3.30;;;1.20;;
21272;SDS011;36726;52.328;10.552;2023-04-03T05:06:40;2.83;;;0.80;;
21272;SDS011;36726;52.328;10.552;2023-04-03T05:09:12;2.42;;;0.85;;
21272;SDS011;36726;52.328;10.552;2023-04-03T05:11:41;1.73;;;0.75;;
21272;SDS011;36726;52.328;10.552;2023-04-03T05:14:13;1.92;;;0.80;;
21272;SDS011;36726;52.328;10.552;2023-04-03T05:16:40;1.67;;;0.85;;
21272;SDS011;36726;52.328;10.552;2023-04-03T05:19:07;2.33;;;1.10;;
21272;SDS011;36726;52.328;10.552;2023-04-03T05:21:37;4.63;;;1.10;;
21272;SDS011;36726;52.328;10.552;2023-04-03T05:24:09;1.83;;;1.02;;
21272;SDS011;36726;52.328;10.552;2023-04-03T05:26:39;6.38;;;1.33;;
21272;SDS011;36726;52.328;10.552;2023-04-03T05:29:06;4.70;;;1.00;;
21272;SDS011;36726;52.328;10.552;2023-04-03T05:31:33;3.05;;;1.30;;
21272;SDS011;36726;52.328;10.552;2023-04-03T05:34:02;6.05;;;1.15;;
21272;SDS011;36726;52.328;10.552;2023-04-03T05:36:34;5.35;;;1.13;;
21272;SDS011;36726;52.328;10.552;2023-04-03T05:39:05;4.05;;;1.00;;
21272;SDS011;36726;52.328;10.552;2023-04-03T05:41:35;2.38;;;1.10;;
21272;SDS011;36726;52.328;10.552;2023-04-03T05:44:02;2.40;;;1.15;;
21272;SDS011;36726;52.328;10.552;2023-04-03T05:46:31;2.95;;;1.38;;
21272;SDS011;36726;52.328;10.552;2023-04-03T05:49:03;2.63;;;1.10;;
21272;SDS011;36726;52.328;10.552;2023-04-03T05:51:35;1.40;;;0.93;;
21272;SDS011;36726;52.328;10.552;2023-04-03T05:54:24;4.93;;;1.00;;
21272;SDS011;36726;52.328;10.552;2023-04-03T05:57:09;6.10;;;1.30;;
21272;SDS011;36726;52.328;10.552;2023-04-03T05:59:36;3.50;;;0.98;;
21272;SDS011;36726;52.328;10.552;2023-04-03T06:02:03;2.92;;;1.60;;
21272;SDS011;36726;52.328;10.552;2023-04-03T06:04:30;4.65;;;1.67;;
21272;SDS011;36726;52.328;10.552;2023-04-03T06:07:02;2.90;;;1.30;;
21272;SDS011;36726;52.328;10.552;2023-04-03T06:09:29;3.45;;;1.05;;
21272;SDS011;36726;52.328;10.552;2023-04-03T06:11:59;4.07;;;1.23;;
21272;SDS011;36726;52.328;10.552;2023-04-03T06:14:27;2.65;;;1.30;;
21272;SDS011;36726;52.328;10.552;2023-04-03T06:16:55;3.92;;;1.50;;
21272;SDS011;36726;52.328;10.552;2023-04-03T06:19:23;2.50;;;1.48;;
21272;SDS011;36726;52.328;10.552;2023-04-03T06:21:54;5.18;;;1.40;;
21272;SDS011;36726;52.328;10.552;2023-04-03T06:24:23;2.85;;;1.52;;
21272;SDS011;36726;52.328;10.552;2023-04-03T06:26:51;4.03;;;1.30;;
21272;SDS011;36726;52.328;10.552;2023-04-03T06:29:19;2.90;;;1.40;;
21272;SDS011;36726;52.328;10.552;2023-04-03T06:31:46;4.22;;;1.35;;
21272;SDS011;36726;52.328;10.552;2023-04-03T06:34:14;3.65;;;1.38;;
21272;SDS011;36726;52.328;10.552;2023-04-03T06:36:42;4.13;;;1.30;;
21272;SDS011;36726;52.328;10.552;2023-04-03T06:39:11;4.05;;;1.20;;
21272;SDS011;36726;52.328;10.552;2023-04-03T06:41:43;2.30;;;1.20;;
21272;SDS011;36726;52.328;10.552;2023-04-03T06:44:10;9.13;;;1.17;;
21272;SDS011;36726;52.328;10.552;2023-04-03T06:46:45;5.60;;;1.13;;
21272;SDS011;36726;52.328;10.552;2023-04-03T06:49:21;3.28;;;1.10;;
21272;SDS011;36726;52.328;10.552;2023-04-03T06:51:48;3.50;;;1.30;;
21272;SDS011;36726;52.328;10.552;2023-04-03T06:54:16;2.08;;;1.00;;
21272;SDS011;36726;52.328;10.552;2023-04-03T06:56:43;3.33;;;0.85;;
21272;SDS011;36726;52.328;10.552;2023-04-03T06:59:13;2.63;;;0.98;;
21272;SDS011;36726;52.328;10.552;2023-04-03T07:01:41;4.38;;;0.90;;
21272;SDS011;36726;52.328;10.552;2023-04-03T07:04:08;5.13;;;1.13;;
21272;SDS011;36726;52.328;10.552;2023-04-03T07:06:35;3.58;;;1.10;;
21272;SDS011;36726;52.328;10.552;2023-04-03T07:09:02;3.22;;;0.80;;
21272;SDS011;36726;52.328;10.552;2023-04-03T07:11:29;2.20;;;0.80;;
21272;SDS011;36726;52.328;10.552;2023-04-03T07:13:56;3.10;;;1.20;;
21272;SDS011;36726;52.328;10.552;2023-04-03T07:16:23;2.38;;;0.82;;
21272;SDS011;36726;52.328;10.552;2023-04-03T07:18:51;2.10;;;0.80;;
21272;SDS011;36726;52.328;10.552;2023-04-03T07:21:18;3.50;;;1.15;;
21272;SDS011;36726;52.328;10.552;2023-04-03T07:23:45;3.25;;;1.13;;
21272;SDS011;36726;52.328;10.552;2023-04-03T07:26:13;3.22;;;0.90;;
21272;SDS011;36726;52.328;10.552;2023-04-03T07:28:40;5.40;;;1.35;;
21272;SDS011;36726;52.328;10.552;2023-04-03T07:31:09;4.45;;;0.80;;
21272;SDS011;36726;52.328;10.552;2023-04-03T07:33:40;7.38;;;1.48;;
21272;SDS011;36726;52.328;10.552;2023-04-03T07:36:08;6.38;;;1.20;;
21272;SDS011;36726;52.328;10.552;2023-04-03T07:38:37;3.88;;;0.90;;
21272;SDS011;36726;52.328;10.552;2023-04-03T07:41:06;5.03;;;1.23;;
21272;SDS011;36726;52.328;10.552;2023-04-03T07:43:34;5.03;;;1.33;;
21272;SDS011;36726;52.328;10.552;2023-04-03T07:46:01;5.10;;;1.20;;
21272;SDS011;36726;52.328;10.552;2023-04-03T07:48:27;3.95;;;0.73;;
21272;SDS011;36726;52.328;10.552;2023-04-03T07:50:54;2.45;;;0.88;;
21272;SDS011;36726;52.328;10.552;2023-04-03T07:53:26;3.45;;;0.80;;
21272;SDS011;36726;52.328;10.552;2023-04-03T07:55:52;3.55;;;1.00;;
21272;SDS011;36726;52.328;10.552;2023-04-03T07:58:22;1.48;;;0.70;;
21272;SDS011;36726;52.328;10.552;2023-04-03T08:00:49;1.10;;;0.80;;
21272;SDS011;36726;52.328;10.552;2023-04-03T08:03:16;6.40;;;1.05;;
21272;SDS011;36726;52.328;10.552;2023-04-03T08:05:45;1.52;;;0.90;;
21272;SDS011;36726;52.328;10.552;2023-04-03T08:08:16;2.08;;;0.65;;
21272;SDS011;36726;52.328;10.552;2023-04-03T08:10:48;2.72;;;0.63;;
21272;SDS011;36726;52.328;10.552;2023-04-03T08:13:16;1.08;;;0.63;;
21272;SDS011;36726;52.328;10.552;2023-04-03T08:15:44;2.88;;;1.02;;
21272;SDS011;36726;52.328;10.552;2023-04-03T08:18:11;2.67;;;0.80;;
21272;SDS011;36726;52.328;10.552;2023-04-03T08:20:38;2.95;;;0.60;;
21272;SDS011;36726;52.328;10.552;2023-04-03T08:23:06;2.42;;;0.93;;
21272;SDS011;36726;52.328;10.552;2023-04-03T08:25:37;1.60;;;0.73;;
21272;SDS011;36726;52.328;10.552;2023-04-03T08:28:08;3.83;;;0.77;;
21272;SDS011;36726;52.328;10.552;2023-04-03T08:30:40;2.33;;;0.70;;
21272;SDS011;36726;52.328;10.552;2023-04-03T08:33:12;2.65;;;0.57;;
21272;SDS011;36726;52.328;10.552;2023-04-03T08:35:41;1.55;;;0.50;;
21272;SDS011;36726;52.328;10.552;2023-04-03T08:38:10;3.50;;;0.70;;
21272;SDS011;36726;52.328;10.552;2023-04-03T08:40:45;1.75;;;0.60;;
21272;SDS011;36726;52.328;10.552;2023-04-03T08:43:33;2.72;;;0.60;;
21272;SDS011;36726;52.328;10.552;2023-04-03T08:46:17;0.40;;;0.30;;
21272;SDS011;36726;52.328;10.552;2023-04-03T08:48:48;1.02;;;0.60;;
21272;SDS011;36726;52.328;10.552;2023-04-03T08:51:17;5.53;;;0.60;;
21272;SDS011;36726;52.328;10.552;2023-04-03T08:53:56;1.60;;;0.50;;
21272;SDS011;36726;52.328;10.552;2023-04-03T08:56:28;0.50;;;0.40;;
21272;SDS011;36726;52.328;10.552;2023-04-03T08:58:58;3.60;;;0.60;;
21272;SDS011;36726;52.328;10.552;2023-04-03T09:01:38;4.93;;;0.70;;
21272;SDS011;36726;52.328;10.552;2023-04-03T09:04:10;3.88;;;0.60;;
21272;SDS011;36726;52.328;10.552;2023-04-03T09:06:39;3.38;;;0.70;;
21272;SDS011;36726;52.328;10.552;2023-04-03T09:09:19;5.28;;;0.98;;
21272;SDS011;36726;52.328;10.552;2023-04-03T09:20:10;1.02;;;0.70;;
21272;SDS011;36726;52.328;10.552;2023-04-03T09:22:46;1.45;;;0.60;;
21272;SDS011;36726;52.328;10.552;2023-04-03T09:25:20;4.20;;;0.60;;
21272;SDS011;36726;52.328;10.552;2023-04-03T09:27:51;2.58;;;0.77;;
21272;SDS011;36726;52.328;10.552;2023-04-03T09:30:23;2.72;;;0.68;;
21272;SDS011;36726;52.328;10.552;2023-04-03T09:32:52;4.25;;;0.50;;
21272;SDS011;36726;52.328;10.552;2023-04-03T09:35:25;1.65;;;0.73;;
21272;SDS011;36726;52.328;10.552;2023-04-03T09:40:43;1.60;;;0.70;;
21272;SDS011;36726;52.328;10.552;2023-04-03T09:45:45;1.92;;;0.80;;
21272;SDS011;36726;52.328;10.552;2023-04-03T09:56:00;1.80;;;0.75;;
21272;SDS011;36726;52.328;10.552;2023-04-03T09:58:38;0.73;;;0.50;;
21272;SDS011;36726;52.328;10.552;2023-04-03T10:01:21;2.70;;;0.70;;
21272;SDS011;36726;52.328;10.552;2023-04-03T10:06:53;2.47;;;0.70;;
21272;SDS011;36726;52.328;10.552;2023-04-03T10:09:23;1.90;;;0.70;;
21272;SDS011;36726;52.328;10.552;2023-04-03T10:14:32;0.90;;;0.60;;
21272;SDS011;36726;52.328;10.552;2023-04-03T10:25:31;5.85;;;0.63;;
21272;SDS011;36726;52.328;10.552;2023-04-03T10:28:13;2.25;;;0.50;;
21272;SDS011;36726;52.328;10.552;2023-04-03T10:33:47;0.80;;;0.40;;
21272;SDS011;36726;52.328;10.552;2023-04-03T10:36:24;2.70;;;0.45;;
21272;SDS011;36726;52.328;10.552;2023-04-03T10:39:30;1.15;;;0.70;;
21272;SDS011;36726;52.328;10.552;2023-04-03T10:45:15;2.08;;;0.52;;
21272;SDS011;36726;52.328;10.552;2023-04-03T10:50:22;0.82;;;0.35;;
21272;SDS011;36726;52.328;10.552;2023-04-03T10:53:21;0.98;;;0.55;;
21272;SDS011;36726;52.328;10.552;2023-04-03T10:56:09;4.40;;;0.60;;
21272;SDS011;36726;52.328;10.552;2023-04-03T10:58:50;2.58;;;0.40;;
21272;SDS011;36726;52.328;10.552;2023-04-03T11:01:21;1.20;;;0.47;;
21272;SDS011;36726;52.328;10.552;2023-04-03T11:03:54;2.40;;;0.57;;
21272;SDS011;36726;52.328;10.552;2023-04-03T11:06:26;1.83;;;0.70;;
21272;SDS011;36726;52.328;10.552;2023-04-03T11:09:02;1.73;;;0.60;;
21272;SDS011;36726;52.328;10.552;2023-04-03T11:11:34;1.58;;;0.65;;
21272;SDS011;36726;52.328;10.552;2023-04-03T11:19:47;1.27;;;0.57;;
21272;SDS011;36726;52.328;10.552;2023-04-03T11:27:56;1.13;;;0.50;;
21272;SDS011;36726;52.328;10.552;2023-04-03T11:33:27;1.35;;;0.68;;
21272;SDS011;36726;52.328;10.552;2023-04-03T11:36:07;1.92;;;0.65;;
21272;SDS011;36726;52.328;10.552;2023-04-03T11:38:55;1.48;;;0.50;;
21272;SDS011;36726;52.328;10.552;2023-04-03T11:41:28;1.60;;;0.50;;
21272;SDS011;36726;52.328;10.552;2023-04-03T11:46:56;2.03;;;0.60;;
21272;SDS011;36726;52.328;10.552;2023-04-03T12:05:50;0.98;;;0.38;;
21272;SDS011;36726;52.328;10.552;2023-04-03T12:08:24;2.38;;;0.40;;
21272;SDS011;36726;52.328;10.552;2023-04-03T12:13:43;3.33;;;0.65;;
21272;SDS011;36726;52.328;10.552;2023-04-03T12:16:41;1.20;;;0.50;;
21272;SDS011;36726;52.328;10.552;2023-04-03T12:26:43;1.55;;;0.63;;
21272;SDS011;36726;52.328;10.552;2023-04-03T12:37:39;0.95;;;0.57;;
21272;SDS011;36726;52.328;10.552;2023-04-03T12:40:16;1.52;;;0.57;;
21272;SDS011;36726;52.328;10.552;2023-04-03T12:46:00;0.82;;;0.50;;
21272;SDS011;36726;52.328;10.552;2023-04-03T12:48:38;1.35;;;0.63;;
21272;SDS011;36726;52.328;10.552;2023-04-03T12:51:37;2.83;;;0.40;;
21272;SDS011;36726;52.328;10.552;2023-04-03T12:57:11;1.80;;;0.60;;
21272;SDS011;36726;52.328;10.552;2023-04-03T12:59:47;0.80;;;0.50;;
21272;SDS011;36726;52.328;10.552;2023-04-03T13:02:24;0.98;;;0.63;;
21272;SDS011;36726;52.328;10.552;2023-04-03T13:04:55;0.95;;;0.60;;
21272;SDS011;36726;52.328;10.552;2023-04-03T13:07:28;1.27;;;0.77;;
21272;SDS011;36726;52.328;10.552;2023-04-03T13:12:32;0.85;;;0.40;;
21272;SDS011;36726;52.328;10.552;2023-04-03T13:15:11;0.75;;;0.40;;
21272;SDS011;36726;52.328;10.552;2023-04-03T13:17:41;1.23;;;0.45;;
21272;SDS011;36726;52.328;10.552;2023-04-03T13:20:14;1.00;;;0.45;;
21272;SDS011;36726;52.328;10.552;2023-04-03T13:23:00;1.65;;;0.80;;
21272;SDS011;36726;52.328;10.552;2023-04-03T13:25:34;1.00;;;0.43;;
21272;SDS011;36726;52.328;10.552;2023-04-03T13:28:09;0.82;;;0.70;;
21272;SDS011;36726;52.328;10.552;2023-04-03T13:30:54;0.70;;;0.50;;
21272;SDS011;36726;52.328;10.552;2023-04-03T13:34:05;1.45;;;0.60;;
21272;SDS011;36726;52.328;10.552;2023-04-03T13:36:40;2.65;;;0.65;;
21272;SDS011;36726;52.328;10.552;2023-04-03T13:41:44;1.55;;;0.73;;
21272;SDS011;36726;52.328;10.552;2023-04-03T13:46:52;1.88;;;0.60;;
21272;SDS011;36726;52.328;10.552;2023-04-03T13:49:58;1.08;;;0.52;;
21272;SDS011;36726;52.328;10.552;2023-04-03T13:52:30;1.63;;;0.55;;
21272;SDS011;36726;52.328;10.552;2023-04-03T14:00:45;2.05;;;0.60;;
21272;SDS011;36726;52.328;10.552;2023-04-03T14:05:58;0.77;;;0.40;;
21272;SDS011;36726;52.328;10.552;2023-04-03T14:08:27;0.88;;;0.50;;
21272;SDS011;36726;52.328;10.552;2023-04-03T14:11:14;2.58;;;0.70;;
21272;SDS011;36726;52.328;10.552;2023-04-03T14:13:44;1.73;;;0.50;;
21272;SDS011;36726;52.328;10.552;2023-04-03T14:16:14;2.13;;;0.60;;
21272;SDS011;36726;52.328;10.552;2023-04-03T14:18:43;2.55;;;0.90;;
21272;SDS011;36726;52.328;10.552;2023-04-03T14:21:13;0.93;;;0.50;;
21272;SDS011;36726;52.328;10.552;2023-04-03T14:23:43;3.90;;;0.73;;
21272;SDS011;36726;52.328;10.552;2023-04-03T14:26:18;1.83;;;0.68;;
21272;SDS011;36726;52.328;10.552;2023-04-03T14:28:49;1.52;;;1.00;;
21272;SDS011;36726;52.328;10.552;2023-04-03T14:31:17;1.38;;;0.63;;
21272;SDS011;36726;52.328;10.552;2023-04-03T14:33:46;1.33;;;0.60;;
21272;SDS011;36726;52.328;10.552;2023-04-03T14:36:18;1.38;;;0.65;;
21272;SDS011;36726;52.328;10.552;2023-04-03T14:38:47;0.60;;;0.40;;
21272;SDS011;36726;52.328;10.552;2023-04-03T14:41:16;0.60;;;0.52;;
21272;SDS011;36726;52.328;10.552;2023-04-03T14:43:45;1.63;;;0.50;;
21272;SDS011;36726;52.328;10.552;2023-04-03T14:46:18;3.22;;;0.73;;
21272;SDS011;36726;52.328;10.552;2023-04-03T14:48:52;0.88;;;0.70;;
21272;SDS011;36726;52.328;10.552;2023-04-03T14:51:19;2.38;;;0.80;;
21272;SDS011;36726;52.328;10.552;2023-04-03T14:53:46;1.13;;;0.60;;
21272;SDS011;36726;52.328;10.552;2023-04-03T14:56:14;5.28;;;2.47;;
21272;SDS011;36726;52.328;10.552;2023-04-03T14:58:44;3.42;;;1.90;;
21272;SDS011;36726;52.328;10.552;2023-04-03T15:01:17;2.35;;;1.25;;
21272;SDS011;36726;52.328;10.552;2023-04-03T15:03:44;2.47;;;0.57;;
21272;SDS011;36726;52.328;10.552;2023-04-03T15:06:11;1.42;;;0.55;;
21272;SDS011;36726;52.328;10.552;2023-04-03T15:08:39;1.73;;;0.80;;
21272;SDS011;36726;52.328;10.552;2023-04-03T15:11:08;3.47;;;0.75;;
21272;SDS011;36726;52.328;10.552;2023-04-03T15:13:37;1.05;;;0.70;;
21272;SDS011;36726;52.328;10.552;2023-04-03T15:16:05;2.03;;;0.70;;
21272;SDS011;36726;52.328;10.552;2023-04-03T15:18:38;1.45;;;0.63;;
21272;SDS011;36726;52.328;10.552;2023-04-03T15:21:05;0.93;;;0.68;;
21272;SDS011;36726;52.328;10.552;2023-04-03T15:23:32;0.90;;;0.50;;
21272;SDS011;36726;52.328;10.552;2023-04-03T15:25:59;0.80;;;0.47;;
21272;SDS011;36726;52.328;10.552;2023-04-03T15:31:08;2.30;;;0.65;;
21272;SDS011;36726;52.328;10.552;2023-04-03T15:33:35;1.50;;;0.47;;
21272;SDS011;36726;52.328;10.552;2023-04-03T15:36:03;0.90;;;0.50;;
21272;SDS011;36726;52.328;10.552;2023-04-03T15:38:37;0.65;;;0.52;;
21272;SDS011;36726;52.328;10.552;2023-04-03T15:41:04;0.82;;;0.40;;
21272;SDS011;36726;52.328;10.552;2023-04-03T15:43:31;0.75;;;0.52;;
21272;SDS011;36726;52.328;10.552;2023-04-03T15:45:59;0.65;;;0.55;;
21272;SDS011;36726;52.328;10.552;2023-04-03T15:48:27;0.70;;;0.40;;
21272;SDS011;36726;52.328;10.552;2023-04-03T15:50:54;1.65;;;0.70;;
21272;SDS011;36726;52.328;10.552;2023-04-03T15:53:23;0.60;;;0.50;;
21272;SDS011;36726;52.328;10.552;2023-04-03T15:55:51;1.75;;;0.70;;
21272;SDS011;36726;52.328;10.552;2023-04-03T15:58:19;1.88;;;0.90;;
21272;SDS011;36726;52.328;10.552;2023-04-03T16:00:46;2.85;;;0.98;;
21272;SDS011;36726;52.328;10.552;2023-04-03T16:03:17;2.55;;;0.70;;
21272;SDS011;36726;52.328;10.552;2023-04-03T16:05:46;1.70;;;0.60;;
21272;SDS011;36726;52.328;10.552;2023-04-03T16:08:13;3.65;;;1.77;;
21272;SDS011;36726;52.328;10.552;2023-04-03T16:10:40;2.22;;;0.70;;
21272;SDS011;36726;52.328;10.552;2023-04-03T16:13:07;1.75;;;0.60;;
21272;SDS011;36726;52.328;10.552;2023-04-03T16:15:34;1.40;;;0.70;;
21272;SDS011;36726;52.328;10.552;2023-04-03T16:18:02;1.30;;;0.50;;
21272;SDS011;36726;52.328;10.552;2023-04-03T16:20:29;1.15;;;0.52;;
21272;SDS011;36726;52.328;10.552;2023-04-03T16:22:57;2.22;;;0.60;;
21272;SDS011;36726;52.328;10.552;2023-04-03T16:25:26;0.82;;;0.55;;
21272;SDS011;36726;52.328;10.552;2023-04-03T16:27:53;1.25;;;0.45;;
21272;SDS011;36726;52.328;10.552;2023-04-03T16:30:20;1.40;;;0.57;;
21272;SDS011;36726;52.328;10.552;2023-04-03T16:32:50;3.05;;;0.80;;
21272;SDS011;36726;52.328;10.552;2023-04-03T16:35:17;2.90;;;0.93;;
21272;SDS011;36726;52.328;10.552;2023-04-03T16:37:46;3.10;;;0.93;;
21272;SDS011;36726;52.328;10.552;2023-04-03T16:40:15;1.88;;;1.08;;
21272;SDS011;36726;52.328;10.552;2023-04-03T16:42:42;0.95;;;0.50;;
21272;SDS011;36726;52.328;10.552;2023-04-03T16:45:10;2.63;;;0.73;;
21272;SDS011;36726;52.328;10.552;2023-04-03T16:47:36;1.00;;;0.60;;
21272;SDS011;36726;52.328;10.552;2023-04-03T16:50:03;1.80;;;0.60;;
21272;SDS011;36726;52.328;10.552;2023-04-03T16:52:31;1.48;;;0.68;;
21272;SDS011;36726;52.328;10.552;2023-04-03T16:54:59;0.82;;;0.57;;
21272;SDS011;36726;52.328;10.552;2023-04-03T16:57:26;2.67;;;0.60;;
21272;SDS011;36726;52.328;10.552;2023-04-03T16:59:53;1.00;;;0.60;;
21272;SDS011;36726;52.328;10.552;2023-04-03T17:02:22;2.97;;;0.43;;
21272;SDS011;36726;52.328;10.552;2023-04-03T17:04:51;1.25;;;0.63;;